createdAt,value
2017-11-06T00:01:10.705Z,93.30
2017-11-06T00:03:38.158Z,92.90
2017-11-06T00:06:05.609Z,92.80
2017-11-06T00:08:33.093Z,93.20
2017-11-06T00:11:00.549Z,92.80
2017-11-06T00:13:28.014Z,92.80
2017-11-06T00:15:55.469Z,93.00
2017-11-06T00:18:22.926Z,92.70
2017-11-06T00:20:50.367Z,93.10
2017-11-06T00:23:17.848Z,93.10
2017-11-06T00:25:45.321Z,92.80
2017-11-06T00:28:12.765Z,92.80
2017-11-06T00:30:40.821Z,92.60
2017-11-06T00:33:08.277Z,92.30
2017-11-06T00:35:35.758Z,92.40
2017-11-06T00:38:03.185Z,92.60
2017-11-06T00:40:30.654Z,93.00
2017-11-06T00:42:58.107Z,92.80
2017-11-06T00:45:25.598Z,93.00
2017-11-06T00:47:53.046Z,93.00
2017-11-06T00:50:20.493Z,92.90
2017-11-06T00:52:47.956Z,92.60
2017-11-06T00:55:15.406Z,92.40
2017-11-06T00:57:42.865Z,92.70
2017-11-06T01:00:10.321Z,92.70
2017-11-06T01:02:37.784Z,92.60
2017-11-06T01:05:05.238Z,92.60
2017-11-06T01:07:32.678Z,93.20
2017-11-06T01:10:00.134Z,93.50
2017-11-06T01:12:27.588Z,93.40
2017-11-06T01:14:55.005Z,93.10
2017-11-06T01:17:23.233Z,93.20
2017-11-06T01:19:50.698Z,93.10
2017-11-06T01:22:18.158Z,93.50
2017-11-06T01:24:45.616Z,93.50
2017-11-06T01:27:13.110Z,93.40
2017-11-06T01:29:41.294Z,93.60
2017-11-06T01:32:08.731Z,93.60
2017-11-06T01:34:36.929Z,93.70
2017-11-06T01:37:05.160Z,93.30
2017-11-06T01:39:32.632Z,93.30
2017-11-06T01:42:00.090Z,93.20
2017-11-06T01:44:27.551Z,93.20
2017-11-06T01:46:55.270Z,93.00
2017-11-06T01:49:22.702Z,93.00
2017-11-06T01:51:50.932Z,93.90
2017-11-06T01:54:18.386Z,93.90
2017-11-06T01:56:45.804Z,93.80
2017-11-06T01:59:13.268Z,93.50
2017-11-06T02:01:40.721Z,93.30
2017-11-06T02:04:08.153Z,93.60
2017-11-06T02:06:36.354Z,93.30
2017-11-06T02:09:03.785Z,93.20
2017-11-06T02:11:31.992Z,93.50
2017-11-06T02:13:59.449Z,93.50
2017-11-06T02:16:26.908Z,93.50
2017-11-06T02:18:54.373Z,93.00
2017-11-06T02:21:21.832Z,93.40
2017-11-06T02:23:49.286Z,93.90
2017-11-06T02:26:16.750Z,93.70
2017-11-06T02:28:44.211Z,94.40
2017-11-06T02:31:11.668Z,94.90
2017-11-06T02:33:39.085Z,94.40
2017-11-06T02:36:07.302Z,93.80
2017-11-06T02:38:34.746Z,93.80
2017-11-06T02:41:02.200Z,93.80
2017-11-06T02:43:29.661Z,94.30
2017-11-06T02:45:57.110Z,94.40
2017-11-06T02:48:25.489Z,94.30
2017-11-06T02:50:53.752Z,94.10
2017-11-06T02:53:21.937Z,93.10
2017-11-06T02:55:49.377Z,93.10
2017-11-06T02:58:17.606Z,92.90
2017-11-06T03:00:45.264Z,92.90
2017-11-06T03:03:12.788Z,93.60
2017-11-06T03:05:40.254Z,93.50
2017-11-06T03:08:07.703Z,93.20
2017-11-06T03:10:35.163Z,93.40
2017-11-06T03:13:02.626Z,93.30
2017-11-06T03:15:30.083Z,93.00
2017-11-06T03:17:57.536Z,92.90
2017-11-06T03:20:26.427Z,93.80
2017-11-06T03:22:53.915Z,93.70
2017-11-06T03:25:21.357Z,93.90
2017-11-06T03:27:48.838Z,93.60
2017-11-06T03:30:16.318Z,93.40
2017-11-06T03:32:43.758Z,93.30
2017-11-06T03:35:11.233Z,92.90
2017-11-06T03:37:38.693Z,92.40
2017-11-06T03:40:06.154Z,93.00
2017-11-06T03:42:33.594Z,92.20
2017-11-06T03:45:01.054Z,92.00
2017-11-06T03:47:28.509Z,92.50
2017-11-06T03:49:55.961Z,92.80
2017-11-06T03:52:23.428Z,92.40
2017-11-06T03:54:50.886Z,92.10
2017-11-06T03:57:18.425Z,91.90
2017-11-06T03:59:45.837Z,92.00
2017-11-06T04:02:13.292Z,92.10
2017-11-06T04:04:41.513Z,92.00
2017-11-06T04:07:08.976Z,92.30
2017-11-06T04:09:36.457Z,91.90
2017-11-06T04:12:03.901Z,92.30
2017-11-06T04:14:31.401Z,92.20
2017-11-06T04:17:00.497Z,92.00
2017-11-06T04:19:28.762Z,91.70
2017-11-06T04:21:56.966Z,91.90
2017-11-06T04:24:24.406Z,91.80
2017-11-06T04:26:53.362Z,91.90
2017-11-06T04:29:20.854Z,91.90
2017-11-06T04:31:49.057Z,91.90
2017-11-06T04:34:22.112Z,91.80
2017-11-06T04:36:50.318Z,92.20
2017-11-06T04:39:17.748Z,92.20
2017-11-06T04:41:45.945Z,92.10
2017-11-06T04:44:13.389Z,92.00
2017-11-06T04:46:40.871Z,92.90
2017-11-06T04:49:09.099Z,91.90
2017-11-06T04:51:36.521Z,91.90
2017-11-06T04:54:03.955Z,92.80
2017-11-06T04:56:31.387Z,93.00
2017-11-06T04:58:59.697Z,92.00
2017-11-06T05:01:27.137Z,92.50
2017-11-06T05:03:55.415Z,92.50
2017-11-06T05:06:22.924Z,92.60
2017-11-06T05:08:50.362Z,92.70
2017-11-06T05:11:17.797Z,92.70
2017-11-06T05:13:45.236Z,92.90
2017-11-06T05:16:12.682Z,92.90
2017-11-06T05:18:40.960Z,92.90
2017-11-06T05:21:09.157Z,93.00
2017-11-06T05:23:36.633Z,93.00
2017-11-06T05:26:04.089Z,93.00
2017-11-06T05:28:31.545Z,93.30
2017-11-06T05:30:59.007Z,93.40
2017-11-06T05:33:26.483Z,93.30
2017-11-06T05:35:53.943Z,93.30
2017-11-06T05:38:21.417Z,93.30
2017-11-06T05:40:48.857Z,93.60
2017-11-06T05:43:16.309Z,94.00
2017-11-06T05:45:43.781Z,93.90
2017-11-06T05:48:11.242Z,93.90
2017-11-06T05:50:38.715Z,93.80
2017-11-06T05:53:06.157Z,93.70
2017-11-06T05:55:33.613Z,93.50
2017-11-06T05:58:01.049Z,93.50
2017-11-06T06:00:28.501Z,92.90
2017-11-06T06:02:55.974Z,93.00
2017-11-06T06:05:23.446Z,92.70
2017-11-06T06:07:50.869Z,92.70
2017-11-06T06:10:18.325Z,92.70
2017-11-06T06:12:45.786Z,92.70
2017-11-06T06:15:13.263Z,93.70
2017-11-06T06:17:40.713Z,93.60
2017-11-06T06:20:08.161Z,93.00
2017-11-06T06:22:35.621Z,93.70
2017-11-06T06:25:03.090Z,93.60
2017-11-06T06:27:30.554Z,93.80
2017-11-06T06:29:58.016Z,93.70
2017-11-06T06:32:26.097Z,93.10
2017-11-06T06:34:53.549Z,93.10
2017-11-06T06:37:21.014Z,93.10
2017-11-06T06:39:48.478Z,93.10
2017-11-06T06:42:15.935Z,93.00
2017-11-06T06:44:43.516Z,92.90
2017-11-06T06:47:10.973Z,92.90
2017-11-06T06:49:38.386Z,92.70
2017-11-06T06:52:05.869Z,93.10
2017-11-06T06:54:33.329Z,92.90
2017-11-06T06:57:00.788Z,92.40
2017-11-06T06:59:28.370Z,93.60
2017-11-06T07:01:56.554Z,93.00
2017-11-06T07:04:24.798Z,92.40
2017-11-06T07:06:52.349Z,92.40
2017-11-06T07:09:19.806Z,92.80
2017-11-06T07:11:47.356Z,92.90
2017-11-06T07:14:14.846Z,92.30
2017-11-06T07:16:43.114Z,92.00
2017-11-06T07:19:10.586Z,92.00
2017-11-06T07:21:38.785Z,91.70
2017-11-06T07:24:06.220Z,91.60
2017-11-06T07:26:34.419Z,91.30
2017-11-06T07:29:01.937Z,91.30
2017-11-06T07:31:29.407Z,91.50
2017-11-06T07:33:57.612Z,91.20
2017-11-06T07:36:25.248Z,91.20
2017-11-06T07:38:53.458Z,91.50
2017-11-06T07:41:20.906Z,91.50
2017-11-06T07:43:48.371Z,91.30
2017-11-06T07:46:15.810Z,91.40
2017-11-06T07:48:43.290Z,90.90
2017-11-06T07:51:10.714Z,91.00
2017-11-06T07:53:39.869Z,90.70
2017-11-06T07:56:07.306Z,90.60
2017-11-06T07:58:34.815Z,90.80
2017-11-06T08:01:02.323Z,90.70
2017-11-06T08:03:29.793Z,90.80
2017-11-06T08:05:57.224Z,91.10
2017-11-06T08:08:24.701Z,91.40
2017-11-06T08:10:52.158Z,90.80
2017-11-06T08:13:19.592Z,90.80
2017-11-06T08:15:47.055Z,90.40
2017-11-06T08:18:14.522Z,90.00
2017-11-06T08:20:42.027Z,90.10
2017-11-06T08:23:09.491Z,90.10
2017-11-06T08:25:36.939Z,90.30
2017-11-06T08:28:04.503Z,90.40
2017-11-06T08:30:31.986Z,90.60
2017-11-06T08:33:00.205Z,91.20
2017-11-06T08:35:27.684Z,91.20
2017-11-06T08:37:55.236Z,91.20
2017-11-06T08:40:22.694Z,91.50
2017-11-06T08:42:50.151Z,90.90
2017-11-06T08:45:17.632Z,90.60
2017-11-06T08:47:45.863Z,90.30
2017-11-06T08:50:13.317Z,90.20
2017-11-06T08:52:40.797Z,87.70
2017-11-06T08:55:08.250Z,89.70
2017-11-06T08:57:35.705Z,87.60
2017-11-06T09:00:03.606Z,86.10
2017-11-06T09:02:31.053Z,88.00
2017-11-06T09:04:58.508Z,88.50
2017-11-06T09:07:26.505Z,85.70
2017-11-06T09:09:53.942Z,89.00
2017-11-06T09:12:21.418Z,88.30
2017-11-06T09:14:48.883Z,88.10
2017-11-06T09:17:16.293Z,88.80
2017-11-06T09:19:43.744Z,87.50
2017-11-06T09:22:11.202Z,86.20
2017-11-06T09:24:38.663Z,86.60
2017-11-06T09:27:06.136Z,87.70
2017-11-06T09:29:33.695Z,85.90
2017-11-06T09:32:01.910Z,87.30
2017-11-06T09:34:30.109Z,88.00
2017-11-06T09:36:57.546Z,88.00
2017-11-06T09:39:26.722Z,84.90
2017-11-06T09:41:54.915Z,85.30
2017-11-06T09:44:23.162Z,83.50
2017-11-06T09:46:50.619Z,83.40
2017-11-06T09:49:18.077Z,80.70
2017-11-06T09:51:45.627Z,82.40
2017-11-06T09:54:13.061Z,82.30
2017-11-06T09:56:40.497Z,82.70
2017-11-06T09:59:07.968Z,83.10
2017-11-06T10:01:35.411Z,82.60
2017-11-06T10:04:03.656Z,82.30
2017-11-06T10:06:31.109Z,82.30
2017-11-06T10:08:58.669Z,81.80
2017-11-06T10:11:26.681Z,81.40
2017-11-06T10:13:54.117Z,80.60
2017-11-06T10:16:21.577Z,80.10
2017-11-06T10:18:49.038Z,79.80
2017-11-06T10:21:16.625Z,77.10
2017-11-06T10:23:44.065Z,77.30
2017-11-06T10:26:11.525Z,78.90
2017-11-06T10:28:38.986Z,77.60
2017-11-06T10:31:06.437Z,76.60
2017-11-06T10:33:33.893Z,75.90
2017-11-06T10:36:01.375Z,75.10
2017-11-06T10:38:28.817Z,73.70
2017-11-06T10:40:56.260Z,71.90
2017-11-06T10:43:23.731Z,68.10
2017-11-06T10:45:51.199Z,63.10
2017-11-06T10:48:18.658Z,63.90
2017-11-06T10:50:46.343Z,58.70
2017-11-06T10:53:13.801Z,57.00
2017-11-06T10:55:41.229Z,53.60
2017-11-06T10:58:08.704Z,52.30
2017-11-06T11:00:36.161Z,49.40
2017-11-06T11:03:03.614Z,48.40
2017-11-06T11:05:31.077Z,49.10
2017-11-06T11:07:58.557Z,47.40
2017-11-06T11:10:26.840Z,47.90
2017-11-06T11:12:54.297Z,50.90
2017-11-06T11:15:21.754Z,52.80
2017-11-06T11:17:49.191Z,54.10
2017-11-06T11:20:16.658Z,55.10
2017-11-06T11:22:44.129Z,57.00
2017-11-06T11:25:11.562Z,58.00
2017-11-06T11:27:39.030Z,61.30
2017-11-06T11:30:06.486Z,62.10
2017-11-06T11:32:33.929Z,64.10
2017-11-06T11:35:01.426Z,63.30
2017-11-06T11:37:28.865Z,65.80
2017-11-06T11:39:56.394Z,65.80
2017-11-06T11:42:23.901Z,66.30
2017-11-06T11:44:51.422Z,66.40
2017-11-06T11:47:18.838Z,65.60
2017-11-06T11:49:47.071Z,68.20
2017-11-06T11:52:14.509Z,68.00
2017-11-06T11:54:41.986Z,69.50
2017-11-06T11:57:09.445Z,69.60
2017-11-06T11:59:36.921Z,70.10
2017-11-06T12:02:04.358Z,69.80
2017-11-06T12:04:31.788Z,70.50
2017-11-06T12:06:59.216Z,70.50
2017-11-06T12:09:26.857Z,69.90
2017-11-06T12:11:54.317Z,69.10
2017-11-06T12:14:22.849Z,68.60
2017-11-06T12:16:50.712Z,71.30
2017-11-06T12:19:18.154Z,70.80
2017-11-06T12:21:45.607Z,71.30
2017-11-06T12:24:13.785Z,72.10
2017-11-06T12:26:41.246Z,72.10
2017-11-06T12:29:09.422Z,69.90
2017-11-06T12:31:37.658Z,69.90
2017-11-06T12:34:05.144Z,68.30
2017-11-06T12:36:33.329Z,71.40
2017-11-06T12:39:00.793Z,71.40
2017-11-06T12:41:28.985Z,70.50
2017-11-06T12:43:56.428Z,70.40
2017-11-06T12:46:23.879Z,69.00
2017-11-06T12:48:52.062Z,67.10
2017-11-06T12:51:20.334Z,67.30
2017-11-06T12:53:47.760Z,67.30
2017-11-06T12:56:15.206Z,65.60
2017-11-06T12:58:42.653Z,66.30
2017-11-06T13:01:10.085Z,64.50
2017-11-06T13:03:37.522Z,66.10
2017-11-06T13:06:05.124Z,64.70
2017-11-06T13:08:33.385Z,64.80
2017-11-06T13:11:00.806Z,64.70
2017-11-06T13:13:28.294Z,65.00
2017-11-06T13:15:55.768Z,63.30
2017-11-06T13:18:23.222Z,65.90
2017-11-06T13:20:50.674Z,66.80
2017-11-06T13:23:18.409Z,65.30
2017-11-06T13:25:46.726Z,66.90
2017-11-06T13:28:14.183Z,66.80
2017-11-06T13:30:41.640Z,66.60
2017-11-06T13:33:09.081Z,65.70
2017-11-06T13:35:36.647Z,65.30
2017-11-06T13:38:04.101Z,65.70
2017-11-06T13:40:31.582Z,65.90
2017-11-06T13:42:59.042Z,65.40
2017-11-06T13:45:27.909Z,65.80
2017-11-06T13:47:55.461Z,65.80
2017-11-06T13:50:22.924Z,67.40
2017-11-06T13:52:50.361Z,68.70
2017-11-06T13:55:17.799Z,68.20
2017-11-06T13:57:46.025Z,66.80
2017-11-06T14:00:13.506Z,66.60
2017-11-06T14:02:41.073Z,69.00
2017-11-06T14:05:08.551Z,68.10
2017-11-06T14:07:36.000Z,66.00
2017-11-06T14:10:03.452Z,64.30
2017-11-06T14:12:30.904Z,65.00
2017-11-06T14:14:58.325Z,63.60
2017-11-06T14:17:25.797Z,63.20
2017-11-06T14:19:53.245Z,59.00
2017-11-06T14:22:20.713Z,59.10
2017-11-06T14:24:48.229Z,59.40
2017-11-06T14:27:16.591Z,59.90
2017-11-06T14:29:44.019Z,59.90
2017-11-06T14:32:11.490Z,57.90
2017-11-06T14:34:38.942Z,57.50
2017-11-06T14:37:07.874Z,57.90
2017-11-06T14:39:36.123Z,59.70
2017-11-06T14:42:03.981Z,59.70
2017-11-06T14:44:31.432Z,63.40
2017-11-06T14:46:58.903Z,64.60
2017-11-06T14:49:27.273Z,65.80
2017-11-06T14:51:54.728Z,67.10
2017-11-06T14:54:22.182Z,69.40
2017-11-06T14:56:49.854Z,68.70
2017-11-06T14:59:17.325Z,70.90
2017-11-06T15:01:44.783Z,71.50
2017-11-06T15:04:13.262Z,72.50
2017-11-06T15:06:40.713Z,72.50
2017-11-06T15:09:08.917Z,74.60
2017-11-06T15:11:38.066Z,75.00
2017-11-06T15:14:05.529Z,75.00
2017-11-06T15:16:33.049Z,75.50
2017-11-06T15:19:00.499Z,75.30
2017-11-06T15:21:28.017Z,76.60
2017-11-06T15:23:55.519Z,77.00
2017-11-06T15:26:22.982Z,76.60
2017-11-06T15:28:50.417Z,77.10
2017-11-06T15:31:17.905Z,78.00
2017-11-06T15:33:45.352Z,78.10
2017-11-06T15:36:12.796Z,79.00
2017-11-06T15:38:40.989Z,79.50
2017-11-06T15:41:08.914Z,79.50
2017-11-06T15:43:37.112Z,81.40
2017-11-06T15:46:04.565Z,81.20
2017-11-06T15:48:32.770Z,82.60
2017-11-06T15:51:00.213Z,82.60
2017-11-06T15:53:27.665Z,83.80
2017-11-06T15:55:55.526Z,83.90
2017-11-06T15:58:22.974Z,84.60
2017-11-06T16:00:51.190Z,84.40
2017-11-06T16:03:18.637Z,84.40
2017-11-06T16:05:46.089Z,84.90
2017-11-06T16:08:13.555Z,85.10
2017-11-06T16:10:41.016Z,85.70
2017-11-06T16:13:08.497Z,85.50
2017-11-06T16:15:35.926Z,85.50
2017-11-06T16:18:03.392Z,85.80
2017-11-06T16:20:30.840Z,86.40
2017-11-06T16:22:59.334Z,86.50
2017-11-06T16:25:28.235Z,86.40
2017-11-06T16:27:55.680Z,86.40
2017-11-06T16:30:23.137Z,86.30
2017-11-06T16:32:50.599Z,86.30
2017-11-06T16:35:18.068Z,86.60
2017-11-06T16:37:45.523Z,86.40
2017-11-06T16:40:12.977Z,86.40
2017-11-06T16:42:40.439Z,86.20
2017-11-06T16:45:07.892Z,86.60
2017-11-06T16:47:36.065Z,86.60
2017-11-06T16:50:03.541Z,87.00
2017-11-06T16:52:31.017Z,87.20
2017-11-06T16:54:58.462Z,86.70
2017-11-06T16:57:26.021Z,86.60
2017-11-06T16:59:53.489Z,87.00
2017-11-06T17:02:20.934Z,87.30
2017-11-06T17:04:48.389Z,87.40
2017-11-06T17:07:16.661Z,88.60
2017-11-06T17:09:44.139Z,88.60
2017-11-06T17:12:11.588Z,88.90
2017-11-06T17:14:39.042Z,89.30
2017-11-06T17:17:06.510Z,89.30
2017-11-06T17:19:33.965Z,88.60
2017-11-06T17:22:01.531Z,88.70
2017-11-06T17:24:28.988Z,88.90
2017-11-06T17:26:56.442Z,88.90
2017-11-06T17:29:23.895Z,89.00
2017-11-06T17:31:51.340Z,89.10
2017-11-06T17:34:18.820Z,89.40
2017-11-06T17:36:46.278Z,89.80
2017-11-06T17:39:13.768Z,89.70
2017-11-06T17:41:41.231Z,89.80
2017-11-06T17:44:09.447Z,90.10
2017-11-06T17:46:36.877Z,90.10
2017-11-06T17:49:04.401Z,90.20
2017-11-06T17:51:31.844Z,90.20
2017-11-06T17:53:59.302Z,90.00
2017-11-06T17:56:27.793Z,89.60
2017-11-06T17:58:56.107Z,89.40
2017-11-06T18:01:23.569Z,89.30
2017-11-06T18:03:51.030Z,89.30
2017-11-06T18:06:18.474Z,89.20
2017-11-06T18:08:45.934Z,89.10
2017-11-06T18:11:13.401Z,89.40
2017-11-06T18:13:40.849Z,89.80
2017-11-06T18:16:08.299Z,90.50
2017-11-06T18:18:35.757Z,90.70
2017-11-06T18:21:03.201Z,90.60
2017-11-06T18:23:30.701Z,90.40
2017-11-06T18:25:58.108Z,90.50
2017-11-06T18:28:26.309Z,90.60
2017-11-06T18:30:53.741Z,90.60
2017-11-06T18:33:21.942Z,90.50
2017-11-06T18:35:49.386Z,90.50
2017-11-06T18:38:17.588Z,90.30
2017-11-06T18:40:45.018Z,90.30
2017-11-06T18:43:12.471Z,90.30
2017-11-06T18:45:40.656Z,90.50
2017-11-06T18:48:08.113Z,90.50
2017-11-06T18:50:35.559Z,90.70
2017-11-06T18:53:03.766Z,90.70
2017-11-06T18:55:31.197Z,90.70
2017-11-06T18:57:58.682Z,90.40
2017-11-06T19:00:26.119Z,90.30
2017-11-06T19:02:53.598Z,90.50
2017-11-06T19:05:21.033Z,90.90
2017-11-06T19:07:48.494Z,91.00
2017-11-06T19:10:15.943Z,90.70
2017-11-06T19:12:44.178Z,90.80
2017-11-06T19:15:11.629Z,90.80
2017-11-06T19:17:39.076Z,90.70
2017-11-06T19:20:06.523Z,90.80
2017-11-06T19:22:33.989Z,90.70
2017-11-06T19:25:01.438Z,90.60
2017-11-06T19:27:28.922Z,90.50
2017-11-06T19:29:56.356Z,90.50
2017-11-06T19:32:23.811Z,90.60
2017-11-06T19:34:51.570Z,90.50
2017-11-06T19:37:19.037Z,90.60
2017-11-06T19:39:47.407Z,90.80
2017-11-06T19:42:14.851Z,90.80
2017-11-06T19:44:42.277Z,90.90
2017-11-06T19:47:10.902Z,91.20
2017-11-06T19:49:38.349Z,91.20
2017-11-06T19:52:05.821Z,91.00
2017-11-06T19:54:33.316Z,91.20
2017-11-06T19:57:00.743Z,91.30
2017-11-06T19:59:28.183Z,91.30
2017-11-06T20:01:55.674Z,91.30
2017-11-06T20:04:23.140Z,91.10
2017-11-06T20:06:50.585Z,91.10
2017-11-06T20:09:18.049Z,91.00
2017-11-06T20:11:45.506Z,90.90
2017-11-06T20:14:12.963Z,90.80
2017-11-06T20:16:40.413Z,90.80
2017-11-06T20:19:07.866Z,90.60
2017-11-06T20:21:35.324Z,90.90
2017-11-06T20:24:02.783Z,90.90
2017-11-06T20:26:30.257Z,90.80
2017-11-06T20:28:57.723Z,90.90
2017-11-06T20:31:25.230Z,90.90
2017-11-06T20:33:52.677Z,90.90
2017-11-06T20:36:20.894Z,90.90
2017-11-06T20:38:48.350Z,90.90
2017-11-06T20:41:15.829Z,90.70
2017-11-06T20:43:43.262Z,90.90
2017-11-06T20:46:10.745Z,90.80
2017-11-06T20:48:38.185Z,90.90
2017-11-06T20:51:05.634Z,90.90
2017-11-06T20:53:33.094Z,90.80
2017-11-06T20:56:00.561Z,90.70
2017-11-06T20:58:28.016Z,90.90
2017-11-06T21:00:55.502Z,90.90
2017-11-06T21:03:22.937Z,91.10
2017-11-06T21:05:50.400Z,91.20
2017-11-06T21:08:17.859Z,91.20
2017-11-06T21:10:45.340Z,91.20
2017-11-06T21:13:12.798Z,91.20
2017-11-06T21:15:40.261Z,91.20
2017-11-06T21:18:07.695Z,91.00
2017-11-06T21:20:35.154Z,91.40
2017-11-06T21:23:02.613Z,91.30
2017-11-06T21:25:30.079Z,91.30
2017-11-06T21:27:57.533Z,91.20
2017-11-06T21:30:30.518Z,91.10
2017-11-06T21:32:57.951Z,91.20
2017-11-06T21:35:25.414Z,91.30
2017-11-06T21:37:52.866Z,91.10
2017-11-06T21:40:20.285Z,90.90
2017-11-06T21:42:48.473Z,90.80
2017-11-06T21:45:15.921Z,90.80
2017-11-06T21:47:43.376Z,90.90
2017-11-06T21:50:11.561Z,90.90
2017-11-06T21:52:39.065Z,90.80
2017-11-06T21:55:06.526Z,91.20
2017-11-06T21:57:33.997Z,91.00
2017-11-06T22:00:01.452Z,90.90
2017-11-06T22:02:28.899Z,90.70
2017-11-06T22:04:56.360Z,90.80
2017-11-06T22:07:23.817Z,91.00
2017-11-06T22:09:51.277Z,90.90
2017-11-06T22:12:18.732Z,91.00
2017-11-06T22:14:46.211Z,90.90
2017-11-06T22:17:14.414Z,90.80
2017-11-06T22:19:41.874Z,90.80
2017-11-06T22:22:10.055Z,91.00
2017-11-06T22:24:37.522Z,91.00
2017-11-06T22:27:04.955Z,91.00
2017-11-06T22:29:32.423Z,90.70
2017-11-06T22:31:59.885Z,90.80
2017-11-06T22:34:28.259Z,90.80
2017-11-06T22:36:55.746Z,90.80
2017-11-06T22:39:23.185Z,90.90
2017-11-06T22:41:50.627Z,90.90
2017-11-06T22:44:18.086Z,91.00
2017-11-06T22:46:45.543Z,90.80
2017-11-06T22:49:13.225Z,90.70
2017-11-06T22:51:40.681Z,90.70
2017-11-06T22:54:08.140Z,90.50
2017-11-06T22:56:35.590Z,90.70
2017-11-06T22:59:03.066Z,90.60
2017-11-06T23:01:30.514Z,90.60
2017-11-06T23:03:57.955Z,90.60
2017-11-06T23:06:25.488Z,90.60
2017-11-06T23:08:52.934Z,90.90
2017-11-06T23:11:20.412Z,91.30
2017-11-06T23:13:48.662Z,91.30
2017-11-06T23:16:16.078Z,91.30
2017-11-06T23:18:43.545Z,91.10
2017-11-06T23:21:10.994Z,91.10
2017-11-06T23:23:38.429Z,91.00
2017-11-06T23:26:05.891Z,91.70
2017-11-06T23:28:33.372Z,91.60
2017-11-06T23:31:00.828Z,91.90
2017-11-06T23:33:29.214Z,91.90
2017-11-06T23:35:56.679Z,91.90
2017-11-06T23:38:24.129Z,91.90
2017-11-06T23:40:51.645Z,92.10
2017-11-06T23:43:19.835Z,91.80
2017-11-06T23:45:47.470Z,91.80
2017-11-06T23:48:14.886Z,91.90
2017-11-06T23:50:42.323Z,92.00
2017-11-06T23:53:09.783Z,91.70
2017-11-06T23:55:37.250Z,91.70
2017-11-06T23:58:04.705Z,91.70
